sensor_id;sensor_type;location;lat;lon;timestamp;P1;durP1;ratioP1;P2;durP2;ratioP2
45049;SDS011;61798;48.048;-1.928;2022-07-29T00:00:34;3.22;;;1.80;;
45049;SDS011;61798;48.048;-1.928;2022-07-29T00:02:40;6.53;;;2.20;;
45049;SDS011;61798;48.048;-1.928;2022-07-29T00:04:46;7.82;;;2.03;;
45049;SDS011;61798;48.048;-1.928;2022-07-29T00:06:52;4.97;;;2.10;;
45049;SDS011;61798;48.048;-1.928;2022-07-29T00:08:58;5.25;;;2.17;;
45049;SDS011;61798;48.048;-1.928;2022-07-29T00:11:04;10.25;;;1.98;;
45049;SDS011;61798;48.048;-1.928;2022-07-29T00:13:10;9.02;;;1.80;;
45049;SDS011;61798;48.048;-1.928;2022-07-29T00:15:16;3.10;;;1.80;;
45049;SDS011;61798;48.048;-1.928;2022-07-29T00:17:22;6.85;;;1.90;;
45049;SDS011;61798;48.048;-1.928;2022-07-29T00:19:29;7.25;;;2.30;;
45049;SDS011;61798;48.048;-1.928;2022-07-29T00:21:35;4.88;;;2.28;;
45049;SDS011;61798;48.048;-1.928;2022-07-29T00:23:41;7.13;;;2.10;;
45049;SDS011;61798;48.048;-1.928;2022-07-29T00:25:47;10.80;;;2.13;;
45049;SDS011;61798;48.048;-1.928;2022-07-29T00:27:53;8.40;;;2.03;;
45049;SDS011;61798;48.048;-1.928;2022-07-29T00:29:58;4.55;;;2.10;;
45049;SDS011;61798;48.048;-1.928;2022-07-29T00:32:05;7.97;;;2.47;;
45049;SDS011;61798;48.048;-1.928;2022-07-29T00:34:11;5.38;;;1.75;;
45049;SDS011;61798;48.048;-1.928;2022-07-29T00:36:35;5.85;;;1.98;;
45049;SDS011;61798;48.048;-1.928;2022-07-29T00:38:41;4.90;;;1.85;;
45049;SDS011;61798;48.048;-1.928;2022-07-29T00:40:50;5.40;;;2.30;;
45049;SDS011;61798;48.048;-1.928;2022-07-29T00:42:56;5.60;;;2.03;;
45049;SDS011;61798;48.048;-1.928;2022-07-29T00:45:02;7.40;;;2.10;;
45049;SDS011;61798;48.048;-1.928;2022-07-29T00:47:09;5.35;;;2.35;;
45049;SDS011;61798;48.048;-1.928;2022-07-29T00:49:16;3.53;;;1.70;;
45049;SDS011;61798;48.048;-1.928;2022-07-29T00:51:22;4.80;;;1.88;;
45049;SDS011;61798;48.048;-1.928;2022-07-29T00:53:28;8.63;;;2.13;;
45049;SDS011;61798;48.048;-1.928;2022-07-29T00:55:35;9.00;;;2.50;;
45049;SDS011;61798;48.048;-1.928;2022-07-29T00:57:42;8.48;;;2.47;;
45049;SDS011;61798;48.048;-1.928;2022-07-29T00:59:49;5.03;;;2.25;;
45049;SDS011;61798;48.048;-1.928;2022-07-29T01:01:55;3.90;;;2.22;;
45049;SDS011;61798;48.048;-1.928;2022-07-29T01:04:01;4.97;;;2.00;;
45049;SDS011;61798;48.048;-1.928;2022-07-29T01:06:07;8.77;;;2.08;;
45049;SDS011;61798;48.048;-1.928;2022-07-29T01:08:14;6.38;;;2.35;;
45049;SDS011;61798;48.048;-1.928;2022-07-29T01:10:21;6.63;;;2.30;;
45049;SDS011;61798;48.048;-1.928;2022-07-29T01:12:28;7.72;;;2.20;;
45049;SDS011;61798;48.048;-1.928;2022-07-29T01:14:38;5.18;;;2.13;;
45049;SDS011;61798;48.048;-1.928;2022-07-29T01:16:48;9.38;;;2.10;;
45049;SDS011;61798;48.048;-1.928;2022-07-29T01:19:01;6.57;;;2.33;;
45049;SDS011;61798;48.048;-1.928;2022-07-29T01:21:21;5.72;;;2.00;;
45049;SDS011;61798;48.048;-1.928;2022-07-29T01:23:49;7.53;;;2.40;;
45049;SDS011;61798;48.048;-1.928;2022-07-29T01:28:47;8.10;;;2.30;;
45049;SDS011;61798;48.048;-1.928;2022-07-29T01:31:05;6.60;;;1.85;;
45049;SDS011;61798;48.048;-1.928;2022-07-29T01:33:13;8.30;;;2.20;;
45049;SDS011;61798;48.048;-1.928;2022-07-29T01:35:41;4.13;;;2.20;;
45049;SDS011;61798;48.048;-1.928;2022-07-29T01:37:50;6.22;;;2.15;;
45049;SDS011;61798;48.048;-1.928;2022-07-29T01:40:03;5.85;;;2.85;;
45049;SDS011;61798;48.048;-1.928;2022-07-29T01:44:30;8.50;;;2.42;;
45049;SDS011;61798;48.048;-1.928;2022-07-29T01:48:52;4.35;;;2.08;;
45049;SDS011;61798;48.048;-1.928;2022-07-29T01:51:04;3.65;;;2.45;;
45049;SDS011;61798;48.048;-1.928;2022-07-29T01:53:17;8.05;;;3.08;;
45049;SDS011;61798;48.048;-1.928;2022-07-29T01:55:31;9.20;;;2.33;;
45049;SDS011;61798;48.048;-1.928;2022-07-29T01:57:42;7.20;;;2.72;;
45049;SDS011;61798;48.048;-1.928;2022-07-29T01:59:49;15.65;;;3.05;;
45049;SDS011;61798;48.048;-1.928;2022-07-29T02:01:57;7.40;;;2.65;;
45049;SDS011;61798;48.048;-1.928;2022-07-29T02:04:05;7.00;;;2.50;;
45049;SDS011;61798;48.048;-1.928;2022-07-29T02:06:14;8.05;;;2.42;;
45049;SDS011;61798;48.048;-1.928;2022-07-29T02:08:24;5.47;;;2.53;;
45049;SDS011;61798;48.048;-1.928;2022-07-29T02:10:32;5.60;;;2.40;;
45049;SDS011;61798;48.048;-1.928;2022-07-29T02:12:40;6.70;;;2.33;;
45049;SDS011;61798;48.048;-1.928;2022-07-29T02:14:49;6.07;;;2.85;;
45049;SDS011;61798;48.048;-1.928;2022-07-29T02:16:58;6.47;;;2.50;;
45049;SDS011;61798;48.048;-1.928;2022-07-29T02:19:07;6.53;;;2.22;;
45049;SDS011;61798;48.048;-1.928;2022-07-29T02:21:15;6.53;;;2.67;;
45049;SDS011;61798;48.048;-1.928;2022-07-29T02:23:26;5.40;;;2.28;;
45049;SDS011;61798;48.048;-1.928;2022-07-29T02:25:32;7.50;;;2.50;;
45049;SDS011;61798;48.048;-1.928;2022-07-29T02:27:39;7.18;;;2.55;;
45049;SDS011;61798;48.048;-1.928;2022-07-29T02:29:47;7.47;;;2.55;;
45049;SDS011;61798;48.048;-1.928;2022-07-29T02:31:56;8.43;;;2.70;;
45049;SDS011;61798;48.048;-1.928;2022-07-29T02:34:06;5.82;;;2.28;;
45049;SDS011;61798;48.048;-1.928;2022-07-29T02:36:14;9.35;;;2.70;;
45049;SDS011;61798;48.048;-1.928;2022-07-29T02:38:21;6.85;;;2.28;;
45049;SDS011;61798;48.048;-1.928;2022-07-29T02:40:47;6.38;;;2.35;;
45049;SDS011;61798;48.048;-1.928;2022-07-29T02:42:55;6.47;;;2.65;;
45049;SDS011;61798;48.048;-1.928;2022-07-29T02:45:01;8.73;;;2.42;;
45049;SDS011;61798;48.048;-1.928;2022-07-29T02:47:12;5.00;;;2.03;;
45049;SDS011;61798;48.048;-1.928;2022-07-29T02:49:30;8.25;;;2.70;;
45049;SDS011;61798;48.048;-1.928;2022-07-29T02:51:45;7.05;;;2.08;;
45049;SDS011;61798;48.048;-1.928;2022-07-29T02:53:58;6.28;;;2.40;;
45049;SDS011;61798;48.048;-1.928;2022-07-29T02:56:13;5.18;;;2.22;;
45049;SDS011;61798;48.048;-1.928;2022-07-29T02:58:25;7.97;;;2.63;;
45049;SDS011;61798;48.048;-1.928;2022-07-29T03:00:35;6.57;;;2.25;;
45049;SDS011;61798;48.048;-1.928;2022-07-29T03:02:44;6.25;;;1.80;;
45049;SDS011;61798;48.048;-1.928;2022-07-29T03:04:55;5.10;;;1.95;;
45049;SDS011;61798;48.048;-1.928;2022-07-29T03:07:03;5.68;;;2.08;;
45049;SDS011;61798;48.048;-1.928;2022-07-29T03:09:10;6.93;;;2.25;;
45049;SDS011;61798;48.048;-1.928;2022-07-29T03:11:18;5.82;;;2.05;;
45049;SDS011;61798;48.048;-1.928;2022-07-29T03:13:25;7.75;;;2.30;;
45049;SDS011;61798;48.048;-1.928;2022-07-29T03:15:32;11.50;;;2.30;;
45049;SDS011;61798;48.048;-1.928;2022-07-29T03:17:39;5.28;;;2.40;;
45049;SDS011;61798;48.048;-1.928;2022-07-29T03:19:46;5.00;;;2.20;;
45049;SDS011;61798;48.048;-1.928;2022-07-29T03:21:52;6.00;;;2.25;;
45049;SDS011;61798;48.048;-1.928;2022-07-29T03:24:01;4.57;;;1.98;;
45049;SDS011;61798;48.048;-1.928;2022-07-29T03:26:07;7.05;;;2.25;;
45049;SDS011;61798;48.048;-1.928;2022-07-29T03:28:13;3.55;;;2.00;;
45049;SDS011;61798;48.048;-1.928;2022-07-29T03:30:19;3.70;;;2.13;;
45049;SDS011;61798;48.048;-1.928;2022-07-29T03:32:25;5.47;;;2.20;;
45049;SDS011;61798;48.048;-1.928;2022-07-29T03:34:31;7.50;;;2.10;;
45049;SDS011;61798;48.048;-1.928;2022-07-29T03:36:37;4.45;;;2.17;;
45049;SDS011;61798;48.048;-1.928;2022-07-29T03:38:43;6.13;;;2.15;;
45049;SDS011;61798;48.048;-1.928;2022-07-29T03:40:54;6.03;;;2.08;;
45049;SDS011;61798;48.048;-1.928;2022-07-29T03:43:06;6.18;;;2.15;;
45049;SDS011;61798;48.048;-1.928;2022-07-29T03:45:16;9.65;;;3.15;;
45049;SDS011;61798;48.048;-1.928;2022-07-29T03:47:24;10.02;;;2.63;;
45049;SDS011;61798;48.048;-1.928;2022-07-29T03:49:34;6.55;;;2.05;;
45049;SDS011;61798;48.048;-1.928;2022-07-29T03:51:43;7.65;;;2.40;;
45049;SDS011;61798;48.048;-1.928;2022-07-29T03:53:49;5.82;;;2.60;;
45049;SDS011;61798;48.048;-1.928;2022-07-29T03:55:56;4.72;;;2.17;;
45049;SDS011;61798;48.048;-1.928;2022-07-29T03:58:05;3.95;;;2.22;;
45049;SDS011;61798;48.048;-1.928;2022-07-29T04:00:13;8.18;;;2.63;;
45049;SDS011;61798;48.048;-1.928;2022-07-29T04:02:21;4.50;;;2.05;;
45049;SDS011;61798;48.048;-1.928;2022-07-29T04:04:28;5.78;;;2.20;;
45049;SDS011;61798;48.048;-1.928;2022-07-29T04:06:37;7.07;;;2.40;;
45049;SDS011;61798;48.048;-1.928;2022-07-29T04:08:47;7.60;;;2.17;;
45049;SDS011;61798;48.048;-1.928;2022-07-29T04:10:53;7.05;;;2.20;;
45049;SDS011;61798;48.048;-1.928;2022-07-29T04:12:59;6.13;;;2.17;;
45049;SDS011;61798;48.048;-1.928;2022-07-29T04:15:05;4.20;;;2.00;;
45049;SDS011;61798;48.048;-1.928;2022-07-29T04:17:12;6.03;;;2.40;;
45049;SDS011;61798;48.048;-1.928;2022-07-29T04:19:18;6.55;;;2.50;;
45049;SDS011;61798;48.048;-1.928;2022-07-29T04:21:24;6.20;;;2.28;;
45049;SDS011;61798;48.048;-1.928;2022-07-29T04:23:30;6.13;;;2.63;;
45049;SDS011;61798;48.048;-1.928;2022-07-29T04:25:39;7.15;;;2.03;;
45049;SDS011;61798;48.048;-1.928;2022-07-29T04:27:46;5.45;;;2.25;;
45049;SDS011;61798;48.048;-1.928;2022-07-29T04:30:06;8.82;;;2.47;;
45049;SDS011;61798;48.048;-1.928;2022-07-29T04:32:13;9.55;;;2.40;;
45049;SDS011;61798;48.048;-1.928;2022-07-29T04:34:19;10.73;;;2.60;;
45049;SDS011;61798;48.048;-1.928;2022-07-29T04:36:25;5.22;;;2.50;;
45049;SDS011;61798;48.048;-1.928;2022-07-29T04:38:31;4.32;;;1.90;;
45049;SDS011;61798;48.048;-1.928;2022-07-29T04:40:37;4.53;;;2.20;;
45049;SDS011;61798;48.048;-1.928;2022-07-29T04:42:43;7.63;;;2.33;;
45049;SDS011;61798;48.048;-1.928;2022-07-29T04:44:49;8.68;;;3.20;;
45049;SDS011;61798;48.048;-1.928;2022-07-29T04:46:55;5.22;;;2.60;;
45049;SDS011;61798;48.048;-1.928;2022-07-29T04:49:02;5.53;;;2.10;;
45049;SDS011;61798;48.048;-1.928;2022-07-29T04:51:08;6.53;;;2.63;;
45049;SDS011;61798;48.048;-1.928;2022-07-29T04:53:14;7.30;;;2.60;;
45049;SDS011;61798;48.048;-1.928;2022-07-29T04:55:20;5.63;;;2.33;;
45049;SDS011;61798;48.048;-1.928;2022-07-29T04:57:26;5.72;;;2.42;;
45049;SDS011;61798;48.048;-1.928;2022-07-29T04:59:32;10.20;;;2.75;;
45049;SDS011;61798;48.048;-1.928;2022-07-29T05:01:38;3.97;;;2.50;;
45049;SDS011;61798;48.048;-1.928;2022-07-29T05:03:44;11.23;;;2.92;;
45049;SDS011;61798;48.048;-1.928;2022-07-29T05:05:50;4.28;;;2.40;;
45049;SDS011;61798;48.048;-1.928;2022-07-29T05:07:56;3.78;;;2.42;;
45049;SDS011;61798;48.048;-1.928;2022-07-29T05:10:02;5.97;;;2.20;;
45049;SDS011;61798;48.048;-1.928;2022-07-29T05:12:09;5.18;;;2.08;;
45049;SDS011;61798;48.048;-1.928;2022-07-29T05:14:15;8.93;;;2.88;;
45049;SDS011;61798;48.048;-1.928;2022-07-29T05:16:21;4.75;;;2.15;;
45049;SDS011;61798;48.048;-1.928;2022-07-29T05:18:27;7.32;;;2.45;;
45049;SDS011;61798;48.048;-1.928;2022-07-29T05:20:33;9.18;;;2.33;;
45049;SDS011;61798;48.048;-1.928;2022-07-29T05:22:39;5.32;;;2.67;;
45049;SDS011;61798;48.048;-1.928;2022-07-29T05:24:45;5.18;;;2.30;;
45049;SDS011;61798;48.048;-1.928;2022-07-29T05:26:52;7.18;;;2.55;;
45049;SDS011;61798;48.048;-1.928;2022-07-29T05:28:58;4.82;;;2.42;;
45049;SDS011;61798;48.048;-1.928;2022-07-29T05:31:03;7.88;;;2.75;;
45049;SDS011;61798;48.048;-1.928;2022-07-29T05:33:10;7.57;;;2.83;;
45049;SDS011;61798;48.048;-1.928;2022-07-29T05:35:16;10.38;;;2.60;;
45049;SDS011;61798;48.048;-1.928;2022-07-29T05:37:22;8.52;;;2.67;;
45049;SDS011;61798;48.048;-1.928;2022-07-29T05:39:28;13.80;;;3.15;;
45049;SDS011;61798;48.048;-1.928;2022-07-29T05:41:33;8.02;;;2.80;;
45049;SDS011;61798;48.048;-1.928;2022-07-29T05:43:39;5.80;;;2.72;;
45049;SDS011;61798;48.048;-1.928;2022-07-29T05:45:45;9.88;;;3.78;;
45049;SDS011;61798;48.048;-1.928;2022-07-29T05:47:51;3.97;;;2.47;;
45049;SDS011;61798;48.048;-1.928;2022-07-29T05:49:57;8.00;;;3.75;;
45049;SDS011;61798;48.048;-1.928;2022-07-29T05:52:03;5.40;;;2.63;;
45049;SDS011;61798;48.048;-1.928;2022-07-29T05:54:10;8.70;;;2.40;;
45049;SDS011;61798;48.048;-1.928;2022-07-29T05:56:16;8.65;;;2.60;;
45049;SDS011;61798;48.048;-1.928;2022-07-29T05:58:22;6.78;;;2.17;;
45049;SDS011;61798;48.048;-1.928;2022-07-29T06:00:27;9.02;;;2.28;;
45049;SDS011;61798;48.048;-1.928;2022-07-29T06:02:33;7.50;;;2.70;;
45049;SDS011;61798;48.048;-1.928;2022-07-29T06:04:39;9.23;;;2.33;;
45049;SDS011;61798;48.048;-1.928;2022-07-29T06:06:45;8.05;;;2.92;;
45049;SDS011;61798;48.048;-1.928;2022-07-29T06:08:52;8.00;;;2.33;;
45049;SDS011;61798;48.048;-1.928;2022-07-29T06:11:35;8.85;;;2.70;;
45049;SDS011;61798;48.048;-1.928;2022-07-29T06:13:41;5.18;;;1.83;;
45049;SDS011;61798;48.048;-1.928;2022-07-29T06:15:47;5.85;;;2.17;;
45049;SDS011;61798;48.048;-1.928;2022-07-29T06:17:53;6.15;;;2.17;;
45049;SDS011;61798;48.048;-1.928;2022-07-29T06:19:59;9.48;;;2.38;;
45049;SDS011;61798;48.048;-1.928;2022-07-29T06:22:05;5.13;;;2.20;;
45049;SDS011;61798;48.048;-1.928;2022-07-29T06:24:12;9.32;;;2.28;;
45049;SDS011;61798;48.048;-1.928;2022-07-29T06:26:19;6.85;;;2.13;;
45049;SDS011;61798;48.048;-1.928;2022-07-29T06:28:24;8.52;;;2.30;;
45049;SDS011;61798;48.048;-1.928;2022-07-29T06:30:31;10.05;;;2.63;;
45049;SDS011;61798;48.048;-1.928;2022-07-29T06:32:37;5.78;;;2.30;;
45049;SDS011;61798;48.048;-1.928;2022-07-29T06:34:43;8.82;;;2.47;;
45049;SDS011;61798;48.048;-1.928;2022-07-29T06:36:49;5.38;;;2.03;;
45049;SDS011;61798;48.048;-1.928;2022-07-29T06:38:55;3.13;;;1.88;;
45049;SDS011;61798;48.048;-1.928;2022-07-29T06:41:01;6.32;;;2.60;;
45049;SDS011;61798;48.048;-1.928;2022-07-29T06:43:08;5.45;;;2.42;;
45049;SDS011;61798;48.048;-1.928;2022-07-29T06:45:14;7.07;;;2.35;;
45049;SDS011;61798;48.048;-1.928;2022-07-29T06:47:21;4.07;;;2.10;;
45049;SDS011;61798;48.048;-1.928;2022-07-29T06:49:27;4.82;;;2.28;;
45049;SDS011;61798;48.048;-1.928;2022-07-29T06:51:33;6.03;;;2.55;;
45049;SDS011;61798;48.048;-1.928;2022-07-29T06:53:39;6.10;;;2.10;;
45049;SDS011;61798;48.048;-1.928;2022-07-29T06:55:46;3.55;;;2.45;;
45049;SDS011;61798;48.048;-1.928;2022-07-29T06:57:51;6.03;;;2.90;;
45049;SDS011;61798;48.048;-1.928;2022-07-29T06:59:57;7.40;;;2.20;;
45049;SDS011;61798;48.048;-1.928;2022-07-29T07:02:03;4.10;;;2.10;;
45049;SDS011;61798;48.048;-1.928;2022-07-29T07:04:09;4.93;;;2.78;;
45049;SDS011;61798;48.048;-1.928;2022-07-29T07:06:16;6.35;;;2.40;;
45049;SDS011;61798;48.048;-1.928;2022-07-29T07:08:22;7.45;;;2.42;;
45049;SDS011;61798;48.048;-1.928;2022-07-29T07:10:29;7.07;;;2.40;;
45049;SDS011;61798;48.048;-1.928;2022-07-29T07:12:35;6.78;;;2.45;;
45049;SDS011;61798;48.048;-1.928;2022-07-29T07:14:41;5.82;;;2.20;;
45049;SDS011;61798;48.048;-1.928;2022-07-29T07:16:47;6.90;;;2.35;;
45049;SDS011;61798;48.048;-1.928;2022-07-29T07:18:53;5.78;;;2.38;;
45049;SDS011;61798;48.048;-1.928;2022-07-29T07:20:59;7.72;;;2.40;;
45049;SDS011;61798;48.048;-1.928;2022-07-29T07:23:05;5.45;;;2.22;;
45049;SDS011;61798;48.048;-1.928;2022-07-29T07:25:12;7.97;;;2.08;;
45049;SDS011;61798;48.048;-1.928;2022-07-29T07:27:18;5.03;;;2.00;;
45049;SDS011;61798;48.048;-1.928;2022-07-29T07:29:24;5.60;;;1.90;;
45049;SDS011;61798;48.048;-1.928;2022-07-29T07:31:30;5.40;;;1.98;;
45049;SDS011;61798;48.048;-1.928;2022-07-29T07:33:36;4.78;;;2.03;;
45049;SDS011;61798;48.048;-1.928;2022-07-29T07:35:42;4.63;;;1.90;;
45049;SDS011;61798;48.048;-1.928;2022-07-29T07:37:49;4.47;;;2.13;;
45049;SDS011;61798;48.048;-1.928;2022-07-29T07:39:55;6.85;;;1.80;;
45049;SDS011;61798;48.048;-1.928;2022-07-29T07:42:20;5.43;;;1.80;;
45049;SDS011;61798;48.048;-1.928;2022-07-29T07:44:26;3.67;;;1.67;;
45049;SDS011;61798;48.048;-1.928;2022-07-29T07:46:32;6.70;;;2.13;;
45049;SDS011;61798;48.048;-1.928;2022-07-29T07:48:38;5.95;;;1.98;;
45049;SDS011;61798;48.048;-1.928;2022-07-29T07:50:44;3.67;;;1.70;;
45049;SDS011;61798;48.048;-1.928;2022-07-29T07:52:51;6.47;;;1.95;;
45049;SDS011;61798;48.048;-1.928;2022-07-29T07:54:58;5.70;;;1.88;;
45049;SDS011;61798;48.048;-1.928;2022-07-29T07:57:04;5.25;;;1.90;;
45049;SDS011;61798;48.048;-1.928;2022-07-29T07:59:10;7.75;;;2.30;;
45049;SDS011;61798;48.048;-1.928;2022-07-29T08:01:16;2.97;;;1.48;;
45049;SDS011;61798;48.048;-1.928;2022-07-29T08:03:24;4.13;;;1.90;;
45049;SDS011;61798;48.048;-1.928;2022-07-29T08:05:30;4.05;;;1.90;;
45049;SDS011;61798;48.048;-1.928;2022-07-29T08:07:36;4.78;;;1.85;;
45049;SDS011;61798;48.048;-1.928;2022-07-29T08:09:42;4.05;;;1.65;;
45049;SDS011;61798;48.048;-1.928;2022-07-29T08:11:48;11.32;;;2.35;;
45049;SDS011;61798;48.048;-1.928;2022-07-29T08:13:54;6.63;;;1.70;;
45049;SDS011;61798;48.048;-1.928;2022-07-29T08:16:01;3.78;;;1.65;;
45049;SDS011;61798;48.048;-1.928;2022-07-29T08:18:07;3.75;;;1.73;;
45049;SDS011;61798;48.048;-1.928;2022-07-29T08:20:13;2.40;;;1.40;;
45049;SDS011;61798;48.048;-1.928;2022-07-29T08:22:19;1.90;;;1.38;;
45049;SDS011;61798;48.048;-1.928;2022-07-29T08:24:25;8.98;;;1.73;;
45049;SDS011;61798;48.048;-1.928;2022-07-29T08:26:49;3.90;;;1.45;;
45049;SDS011;61798;48.048;-1.928;2022-07-29T08:28:55;4.50;;;1.73;;
45049;SDS011;61798;48.048;-1.928;2022-07-29T08:31:01;2.63;;;1.55;;
45049;SDS011;61798;48.048;-1.928;2022-07-29T08:33:07;5.88;;;1.60;;
45049;SDS011;61798;48.048;-1.928;2022-07-29T08:35:13;5.47;;;1.90;;
45049;SDS011;61798;48.048;-1.928;2022-07-29T08:37:19;8.73;;;1.77;;
45049;SDS011;61798;48.048;-1.928;2022-07-29T08:39:25;6.63;;;2.13;;
45049;SDS011;61798;48.048;-1.928;2022-07-29T08:41:32;3.10;;;1.63;;
45049;SDS011;61798;48.048;-1.928;2022-07-29T08:43:39;2.88;;;1.60;;
45049;SDS011;61798;48.048;-1.928;2022-07-29T08:45:47;8.48;;;2.40;;
45049;SDS011;61798;48.048;-1.928;2022-07-29T08:47:54;5.45;;;1.80;;
45049;SDS011;61798;48.048;-1.928;2022-07-29T08:50:00;5.60;;;2.15;;
45049;SDS011;61798;48.048;-1.928;2022-07-29T08:52:06;8.77;;;2.15;;
45049;SDS011;61798;48.048;-1.928;2022-07-29T08:54:16;2.95;;;1.58;;
45049;SDS011;61798;48.048;-1.928;2022-07-29T08:56:23;4.80;;;1.65;;
45049;SDS011;61798;48.048;-1.928;2022-07-29T09:01:32;4.53;;;1.52;;
45049;SDS011;61798;48.048;-1.928;2022-07-29T09:03:39;5.65;;;1.80;;
45049;SDS011;61798;48.048;-1.928;2022-07-29T09:05:46;5.38;;;1.77;;
45049;SDS011;61798;48.048;-1.928;2022-07-29T09:07:52;5.40;;;1.60;;
45049;SDS011;61798;48.048;-1.928;2022-07-29T09:09:59;4.47;;;1.92;;
45049;SDS011;61798;48.048;-1.928;2022-07-29T09:12:05;7.13;;;2.00;;
45049;SDS011;61798;48.048;-1.928;2022-07-29T09:14:13;6.95;;;2.30;;
45049;SDS011;61798;48.048;-1.928;2022-07-29T09:16:19;10.20;;;2.10;;
45049;SDS011;61798;48.048;-1.928;2022-07-29T09:18:47;2.20;;;1.60;;
45049;SDS011;61798;48.048;-1.928;2022-07-29T09:20:52;4.90;;;1.67;;
45049;SDS011;61798;48.048;-1.928;2022-07-29T09:23:17;6.65;;;2.45;;
45049;SDS011;61798;48.048;-1.928;2022-07-29T09:25:36;6.00;;;1.95;;
45049;SDS011;61798;48.048;-1.928;2022-07-29T09:27:45;4.30;;;1.85;;
45049;SDS011;61798;48.048;-1.928;2022-07-29T09:30:09;3.85;;;2.10;;
45049;SDS011;61798;48.048;-1.928;2022-07-29T09:32:16;9.50;;;2.30;;
45049;SDS011;61798;48.048;-1.928;2022-07-29T09:34:26;7.07;;;1.95;;
45049;SDS011;61798;48.048;-1.928;2022-07-29T09:36:40;8.93;;;2.22;;
45049;SDS011;61798;48.048;-1.928;2022-07-29T09:38:57;11.40;;;2.08;;
45049;SDS011;61798;48.048;-1.928;2022-07-29T09:41:08;6.70;;;1.80;;
45049;SDS011;61798;48.048;-1.928;2022-07-29T09:43:15;7.30;;;2.10;;
45049;SDS011;61798;48.048;-1.928;2022-07-29T09:45:31;8.52;;;2.13;;
45049;SDS011;61798;48.048;-1.928;2022-07-29T09:47:45;4.70;;;2.10;;
45049;SDS011;61798;48.048;-1.928;2022-07-29T09:49:55;2.58;;;1.83;;
45049;SDS011;61798;48.048;-1.928;2022-07-29T09:52:09;3.42;;;1.80;;
45049;SDS011;61798;48.048;-1.928;2022-07-29T09:54:23;2.75;;;1.70;;
45049;SDS011;61798;48.048;-1.928;2022-07-29T09:56:40;5.90;;;2.17;;
45049;SDS011;61798;48.048;-1.928;2022-07-29T09:58:47;5.68;;;1.70;;
45049;SDS011;61798;48.048;-1.928;2022-07-29T10:00:54;3.55;;;1.80;;
45049;SDS011;61798;48.048;-1.928;2022-07-29T10:03:01;24.13;;;2.67;;
45049;SDS011;61798;48.048;-1.928;2022-07-29T10:05:21;7.80;;;2.33;;
45049;SDS011;61798;48.048;-1.928;2022-07-29T10:07:42;4.47;;;1.92;;
45049;SDS011;61798;48.048;-1.928;2022-07-29T10:09:55;16.03;;;2.70;;
45049;SDS011;61798;48.048;-1.928;2022-07-29T10:12:06;19.55;;;2.72;;
45049;SDS011;61798;48.048;-1.928;2022-07-29T10:14:17;16.02;;;2.38;;
45049;SDS011;61798;48.048;-1.928;2022-07-29T10:16:23;5.28;;;2.10;;
45049;SDS011;61798;48.048;-1.928;2022-07-29T10:18:31;3.97;;;1.92;;
45049;SDS011;61798;48.048;-1.928;2022-07-29T10:20:38;7.03;;;1.83;;
45049;SDS011;61798;48.048;-1.928;2022-07-29T10:22:45;4.32;;;2.00;;
45049;SDS011;61798;48.048;-1.928;2022-07-29T10:24:52;3.83;;;1.92;;
45049;SDS011;61798;48.048;-1.928;2022-07-29T10:27:01;7.63;;;2.35;;
45049;SDS011;61798;48.048;-1.928;2022-07-29T10:29:08;5.72;;;2.20;;
45049;SDS011;61798;48.048;-1.928;2022-07-29T10:31:20;2.75;;;1.70;;
45049;SDS011;61798;48.048;-1.928;2022-07-29T10:33:36;6.97;;;1.95;;
45049;SDS011;61798;48.048;-1.928;2022-07-29T10:36:07;4.90;;;1.77;;
45049;SDS011;61798;48.048;-1.928;2022-07-29T10:41:11;4.22;;;2.15;;
45049;SDS011;61798;48.048;-1.928;2022-07-29T10:43:35;4.80;;;1.90;;
45049;SDS011;61798;48.048;-1.928;2022-07-29T10:48:03;5.25;;;1.70;;
45049;SDS011;61798;48.048;-1.928;2022-07-29T10:50:11;6.30;;;1.60;;
45049;SDS011;61798;48.048;-1.928;2022-07-29T10:52:17;6.13;;;1.80;;
45049;SDS011;61798;48.048;-1.928;2022-07-29T10:56:48;4.60;;;1.88;;
45049;SDS011;61798;48.048;-1.928;2022-07-29T11:01:29;2.50;;;1.40;;
45049;SDS011;61798;48.048;-1.928;2022-07-29T11:03:43;5.68;;;1.63;;
45049;SDS011;61798;48.048;-1.928;2022-07-29T11:05:52;4.70;;;1.65;;
45049;SDS011;61798;48.048;-1.928;2022-07-29T11:10:22;3.15;;;1.70;;
45049;SDS011;61798;48.048;-1.928;2022-07-29T11:14:57;6.45;;;1.42;;
45049;SDS011;61798;48.048;-1.928;2022-07-29T11:17:04;2.75;;;1.60;;
45049;SDS011;61798;48.048;-1.928;2022-07-29T11:21:38;8.25;;;1.77;;
45049;SDS011;61798;48.048;-1.928;2022-07-29T11:23:45;4.32;;;1.60;;
45049;SDS011;61798;48.048;-1.928;2022-07-29T11:28:18;2.90;;;1.58;;
45049;SDS011;61798;48.048;-1.928;2022-07-29T11:32:56;2.78;;;1.42;;
45049;SDS011;61798;48.048;-1.928;2022-07-29T11:35:13;3.05;;;1.40;;
45049;SDS011;61798;48.048;-1.928;2022-07-29T11:37:20;6.93;;;1.52;;
45049;SDS011;61798;48.048;-1.928;2022-07-29T11:39:27;6.32;;;1.65;;
45049;SDS011;61798;48.048;-1.928;2022-07-29T11:41:33;3.30;;;1.90;;
45049;SDS011;61798;48.048;-1.928;2022-07-29T11:43:46;5.45;;;1.63;;
45049;SDS011;61798;48.048;-1.928;2022-07-29T11:45:53;5.53;;;1.60;;
45049;SDS011;61798;48.048;-1.928;2022-07-29T11:47:59;3.88;;;1.67;;
45049;SDS011;61798;48.048;-1.928;2022-07-29T11:50:10;6.88;;;2.08;;
45049;SDS011;61798;48.048;-1.928;2022-07-29T11:52:18;2.45;;;1.42;;
45049;SDS011;61798;48.048;-1.928;2022-07-29T11:54:34;5.13;;;1.80;;
45049;SDS011;61798;48.048;-1.928;2022-07-29T11:56:42;4.40;;;1.30;;
45049;SDS011;61798;48.048;-1.928;2022-07-29T11:58:59;3.03;;;1.60;;
45049;SDS011;61798;48.048;-1.928;2022-07-29T12:01:12;4.90;;;1.80;;
45049;SDS011;61798;48.048;-1.928;2022-07-29T12:03:26;5.20;;;1.77;;
45049;SDS011;61798;48.048;-1.928;2022-07-29T12:05:37;6.63;;;1.63;;
45049;SDS011;61798;48.048;-1.928;2022-07-29T12:07:45;3.72;;;1.70;;
45049;SDS011;61798;48.048;-1.928;2022-07-29T12:09:52;5.15;;;1.80;;
45049;SDS011;61798;48.048;-1.928;2022-07-29T12:11:59;7.15;;;1.98;;
45049;SDS011;61798;48.048;-1.928;2022-07-29T12:14:05;8.95;;;1.85;;
45049;SDS011;61798;48.048;-1.928;2022-07-29T12:16:11;5.57;;;2.00;;
45049;SDS011;61798;48.048;-1.928;2022-07-29T12:18:17;3.47;;;1.40;;
45049;SDS011;61798;48.048;-1.928;2022-07-29T12:20:26;9.43;;;1.50;;
45049;SDS011;61798;48.048;-1.928;2022-07-29T12:22:35;7.63;;;1.67;;
45049;SDS011;61798;48.048;-1.928;2022-07-29T12:24:43;3.20;;;1.60;;
45049;SDS011;61798;48.048;-1.928;2022-07-29T12:28:56;12.00;;;2.10;;
45049;SDS011;61798;48.048;-1.928;2022-07-29T12:31:02;21.55;;;2.25;;
45049;SDS011;61798;48.048;-1.928;2022-07-29T12:33:26;8.45;;;1.98;;
45049;SDS011;61798;48.048;-1.928;2022-07-29T12:35:35;5.65;;;1.70;;
45049;SDS011;61798;48.048;-1.928;2022-07-29T12:37:43;6.93;;;1.50;;
45049;SDS011;61798;48.048;-1.928;2022-07-29T12:39:51;10.38;;;2.10;;
45049;SDS011;61798;48.048;-1.928;2022-07-29T12:41:58;3.10;;;1.55;;
45049;SDS011;61798;48.048;-1.928;2022-07-29T12:44:05;7.57;;;1.50;;
45049;SDS011;61798;48.048;-1.928;2022-07-29T12:46:13;6.20;;;1.90;;
45049;SDS011;61798;48.048;-1.928;2022-07-29T12:50:58;14.20;;;2.08;;
45049;SDS011;61798;48.048;-1.928;2022-07-29T12:53:10;5.40;;;2.10;;
45049;SDS011;61798;48.048;-1.928;2022-07-29T12:57:50;4.32;;;1.80;;
45049;SDS011;61798;48.048;-1.928;2022-07-29T13:00:24;6.75;;;1.63;;
45049;SDS011;61798;48.048;-1.928;2022-07-29T13:02:31;9.90;;;1.83;;
45049;SDS011;61798;48.048;-1.928;2022-07-29T13:04:38;7.85;;;1.58;;
45049;SDS011;61798;48.048;-1.928;2022-07-29T13:06:45;4.18;;;1.48;;
45049;SDS011;61798;48.048;-1.928;2022-07-29T13:11:33;4.68;;;1.50;;
45049;SDS011;61798;48.048;-1.928;2022-07-29T13:13:50;7.15;;;1.73;;
45049;SDS011;61798;48.048;-1.928;2022-07-29T13:16:07;4.53;;;1.60;;
45049;SDS011;61798;48.048;-1.928;2022-07-29T13:18:34;3.88;;;1.60;;
45049;SDS011;61798;48.048;-1.928;2022-07-29T13:20:47;4.78;;;1.58;;
45049;SDS011;61798;48.048;-1.928;2022-07-29T13:22:55;4.45;;;1.50;;
45049;SDS011;61798;48.048;-1.928;2022-07-29T13:25:08;2.70;;;1.60;;